Time;durP1;ratioP1;P1;durP2;ratioP2;P2;SDS_P1;SDS_P2;PMS_P1;PMS_P2;Temp;Humidity;BMP_temperature;BMP_pressure;BME280_temperature;BME280_humidity;BME280_pressure;Samples;Min_cycle;Max_cycle;Signal;HPM_P1;HPM_P2
2023/06/20 00:00:59;;;;;;;7.35;5.05;;;;;;;19.05;49.14;94030.63;4986167;28;20425;-75
2023/06/20 00:03:25;;;;;;;7.78;5.25;;;;;;;18.94;49.59;94028.88;4989188;28;20512;-76
2023/06/20 00:05:50;;;;;;;7.38;5.20;;;;;;;18.80;50.14;94032.91;4987436;28;20249;-74
2023/06/20 00:08:15;;;;;;;7.68;5.18;;;;;;;18.79;50.13;94038.63;4990994;28;20029;-74
2023/06/20 00:10:41;;;;;;;8.68;5.22;;;;;;;18.76;50.03;94042.84;4986136;28;20794;-75
2023/06/20 00:13:06;;;;;;;6.03;5.38;;;;;;;18.71;50.40;94032.38;4988872;28;20100;-74
2023/06/20 00:15:32;;;;;;;8.88;5.57;;;;;;;18.70;50.39;94027.28;4986672;28;20168;-74
2023/06/20 00:18:01;;;;;;;7.78;5.90;;;;;;;18.71;50.49;94039.66;4989589;28;20542;-75
2023/06/20 00:20:30;;;;;;;7.90;5.38;;;;;;;18.66;50.87;94032.63;4988875;28;20495;-75
2023/06/20 00:22:57;;;;;;;6.38;5.53;;;;;;;18.63;50.61;94029.84;4991228;28;20500;-73
2023/06/20 00:25:22;;;;;;;9.77;6.03;;;;;;;18.63;50.63;94040.63;4989557;28;20590;-74
2023/06/20 00:27:48;;;;;;;9.10;6.00;;;;;;;18.52;51.10;94037.75;4987432;28;20488;-74
2023/06/20 00:30:14;;;;;;;11.15;6.10;;;;;;;18.54;51.14;94034.69;4989872;28;20058;-73
2023/06/20 00:32:39;;;;;;;7.50;5.57;;;;;;;18.47;51.54;94043.44;4990916;28;20034;-75
2023/06/20 00:35:05;;;;;;;9.02;6.07;;;;;;;18.39;51.59;94030.97;4985588;28;20050;-74
2023/06/20 00:37:31;;;;;;;6.93;5.90;;;;;;;18.42;51.86;94030.28;4988706;28;20038;-74
2023/06/20 00:39:56;;;;;;;6.95;5.32;;;;;;;18.27;51.77;94025.75;4986468;28;20070;-75
2023/06/20 00:42:23;;;;;;;7.07;5.95;;;;;;;18.32;52.42;94033.53;4989550;28;20038;-74
2023/06/20 00:44:50;;;;;;;14.10;5.70;;;;;;;18.22;52.53;94031.44;4987737;28;20077;-74
2023/06/20 00:47:17;;;;;;;6.38;5.38;;;;;;;18.23;52.53;94038.38;4987351;28;20025;-74
2023/06/20 00:49:48;;;;;;;8.73;5.30;;;;;;;18.16;52.33;94027.44;4986662;28;20018;-75
2023/06/20 00:52:17;;;;;;;11.18;5.28;;;;;;;18.22;52.29;94031.44;4989640;28;20048;-75
2023/06/20 00:54:47;;;;;;;6.68;5.45;;;;;;;18.21;52.47;94027.16;4984102;28;20694;-74
2023/06/20 00:57:17;;;;;;;8.27;6.05;;;;;;;18.24;52.14;94023.75;4985545;28;20200;-73
2023/06/20 00:59:50;;;;;;;6.07;5.47;;;;;;;18.08;52.60;94005.03;4988743;28;20107;-75
2023/06/20 01:02:16;;;;;;;6.60;5.30;;;;;;;18.09;53.03;94016.56;4990563;28;20065;-75
2023/06/20 01:04:46;;;;;;;6.82;5.78;;;;;;;18.07;52.90;94024.19;4985184;28;20026;-75
2023/06/20 01:07:37;;;;;;;10.40;5.85;;;;;;;17.94;53.56;94016.25;4989397;28;21314;-74
2023/06/20 01:10:08;;;;;;;7.85;5.90;;;;;;;17.88;53.74;94020.34;4985985;28;20594;-75
2023/06/20 01:12:45;;;;;;;7.57;6.45;;;;;;;17.78;53.67;94015.53;4987828;28;20076;-74
2023/06/20 01:15:34;;;;;;;9.43;6.30;;;;;;;17.81;54.05;94030.97;4988292;28;20542;-75
2023/06/20 01:18:14;;;;;;;7.72;6.03;;;;;;;17.79;54.05;94014.41;4989753;28;20168;-75
2023/06/20 01:20:50;;;;;;;7.13;6.00;;;;;;;17.75;54.11;94024.28;4985331;28;20046;-75
2023/06/20 01:23:39;;;;;;;7.55;5.63;;;;;;;17.77;53.96;94022.03;4987500;28;20030;-74
2023/06/20 01:26:10;;;;;;;7.90;6.13;;;;;;;17.71;54.43;94026.13;4988919;28;20030;-75
2023/06/20 01:28:38;;;;;;;9.07;6.18;;;;;;;17.72;54.29;94025.00;5002882;28;20049;-75
2023/06/20 01:31:11;;;;;;;8.45;6.50;;;;;;;17.71;54.58;94022.66;4984744;28;20038;-74
2023/06/20 01:34:11;;;;;;;6.95;6.25;;;;;;;17.75;54.42;94024.28;4986485;28;20029;-74
2023/06/20 01:36:42;;;;;;;8.85;7.07;;;;;;;17.58;54.89;94025.50;4987629;28;20041;-74
2023/06/20 01:39:23;;;;;;;8.05;6.88;;;;;;;17.52;55.34;94009.97;4987171;28;20570;-75
2023/06/20 01:41:50;;;;;;;8.32;6.68;;;;;;;17.53;55.74;94023.06;4986581;28;20114;-74
2023/06/20 01:44:17;;;;;;;8.60;6.93;;;;;;;17.48;55.49;94017.19;4985762;28;20034;-75
2023/06/20 01:46:46;;;;;;;7.32;6.55;;;;;;;17.49;55.80;94021.44;4986268;28;20162;-74
2023/06/20 01:49:13;;;;;;;7.88;6.75;;;;;;;17.50;55.72;94023.00;4989206;28;20381;-74
2023/06/20 01:51:39;;;;;;;8.73;6.97;;;;;;;17.55;55.80;94033.50;4987046;28;20045;-75
2023/06/20 01:54:06;;;;;;;9.15;7.18;;;;;;;17.47;55.51;94029.06;4992060;28;20424;-74
2023/06/20 01:56:32;;;;;;;7.88;7.03;;;;;;;17.55;55.73;94036.19;4988503;28;20030;-74
2023/06/20 01:59:02;;;;;;;8.15;6.68;;;;;;;17.40;55.63;94024.34;4989987;28;20044;-74
2023/06/20 02:01:30;;;;;;;8.05;6.10;;;;;;;17.52;55.49;94031.47;4991115;28;20649;-75
2023/06/20 02:03:56;;;;;;;7.85;6.43;;;;;;;17.48;55.43;94030.63;4990965;28;20129;-75
2023/06/20 02:06:23;;;;;;;7.68;6.20;;;;;;;17.53;55.38;94038.44;4991502;28;20041;-74
2023/06/20 02:08:51;;;;;;;7.55;6.25;;;;;;;17.43;55.46;94039.75;4988372;28;20054;-75
2023/06/20 02:11:17;;;;;;;10.25;6.40;;;;;;;17.43;55.38;94028.22;5004459;28;20026;-75
2023/06/20 02:13:43;;;;;;;7.50;6.65;;;;;;;17.36;55.55;94034.22;4990354;28;20045;-75
2023/06/20 02:16:10;;;;;;;10.05;5.65;;;;;;;17.44;55.66;94037.84;5005951;28;20043;-74
2023/06/20 02:18:35;;;;;;;7.13;5.93;;;;;;;17.40;55.63;94034.31;4988897;28;20034;-74
2023/06/20 02:21:06;;;;;;;9.50;6.30;;;;;;;17.33;56.06;94034.91;4987717;28;20042;-75
2023/06/20 02:23:34;;;;;;;6.60;5.90;;;;;;;17.17;56.17;94016.13;4990231;28;20036;-74
2023/06/20 02:26:14;;;;;;;9.02;5.35;;;;;;;17.20;56.04;94021.94;4988083;28;20057;-76
2023/06/20 02:28:44;;;;;;;11.50;7.10;;;;;;;17.23;56.15;94023.91;4990596;28;20050;-75
2023/06/20 02:31:14;;;;;;;8.05;6.60;;;;;;;17.14;56.19;94026.78;4991333;28;20539;-74
2023/06/20 02:33:41;;;;;;;8.73;6.38;;;;;;;17.08;56.31;94020.88;4989641;28;20642;-74
2023/06/20 02:36:08;;;;;;;7.13;6.32;;;;;;;16.97;56.65;94027.91;4988509;28;20493;-74
2023/06/20 02:38:34;;;;;;;10.73;6.85;;;;;;;17.10;56.46;94031.28;4989665;28;20057;-73
2023/06/20 02:40:59;;;;;;;14.85;6.95;;;;;;;17.15;56.46;94039.13;4992104;28;20118;-74
2023/06/20 02:43:25;;;;;;;9.85;7.50;;;;;;;17.09;56.77;94041.25;4989975;28;20038;-74
2023/06/20 02:46:03;;;;;;;12.60;8.05;;;;;;;17.06;57.22;94041.19;4988479;28;20030;-74
2023/06/20 02:48:44;;;;;;;9.00;8.10;;;;;;;17.04;57.55;94043.41;4990459;28;20053;-74
2023/06/20 02:51:16;;;;;;;12.70;8.30;;;;;;;17.07;57.62;94042.72;4989138;28;20038;-75
2023/06/20 02:54:03;;;;;;;8.68;7.57;;;;;;;16.77;57.88;94007.44;4992267;28;20034;-75
2023/06/20 02:56:35;;;;;;;16.50;7.85;;;;;;;17.01;57.82;94058.31;4991812;28;20576;-76
2023/06/20 02:59:02;;;;;;;12.23;7.97;;;;;;;16.95;58.00;94054.34;4991000;28;20147;-74
2023/06/20 03:01:30;;;;;;;11.50;8.30;;;;;;;16.95;58.15;94062.41;4986025;28;20107;-74
2023/06/20 03:03:59;;;;;;;12.88;8.48;;;;;;;16.87;58.37;94052.59;4992651;28;20038;-74
2023/06/20 03:06:27;;;;;;;9.98;8.27;;;;;;;16.95;58.09;94067.78;4989621;28;20431;-74
2023/06/20 03:08:54;;;;;;;11.25;8.60;;;;;;;17.04;57.99;94070.28;4988257;28;20025;-75
2023/06/20 03:11:21;;;;;;;11.18;8.57;;;;;;;16.92;58.51;94057.72;4991293;28;20038;-73
2023/06/20 03:13:47;;;;;;;11.90;9.15;;;;;;;16.99;58.64;94082.06;4988744;28;20049;-73
2023/06/20 03:16:12;;;;;;;10.40;9.13;;;;;;;16.99;59.04;94082.06;4989933;28;20034;-74
2023/06/20 03:18:38;;;;;;;13.02;9.05;;;;;;;16.72;58.77;94039.97;4991127;28;20038;-74
2023/06/20 03:21:04;;;;;;;17.05;10.05;;;;;;;16.97;59.38;94086.22;4988459;28;20045;-75
2023/06/20 03:23:29;;;;;;;10.18;8.40;;;;;;;16.87;59.46;94065.25;4989760;28;20034;-74
2023/06/20 03:25:55;;;;;;;11.52;9.00;;;;;;;16.93;59.66;94079.97;4991230;28;20372;-75
2023/06/20 03:28:22;;;;;;;11.38;9.32;;;;;;;17.03;59.75;94091.00;4989507;28;20053;-74
2023/06/20 03:30:48;;;;;;;8.95;7.88;;;;;;;17.12;59.60;94094.28;4990426;28;20084;-74
2023/06/20 03:33:13;;;;;;;11.18;7.97;;;;;;;17.07;59.86;94091.84;5003153;28;20604;-74
2023/06/20 03:35:40;;;;;;;10.88;8.70;;;;;;;17.04;60.38;94073.75;4989822;28;20480;-75
2023/06/20 03:38:05;;;;;;;13.90;8.90;;;;;;;17.04;60.38;94073.75;4989973;28;20477;-74
2023/06/20 03:40:31;;;;;;;11.60;8.38;;;;;;;17.07;60.36;94070.38;4991789;28;20454;-75
2023/06/20 03:42:56;;;;;;;14.80;9.75;;;;;;;17.24;60.16;94090.78;4987870;28;20531;-74
2023/06/20 03:45:22;;;;;;;10.07;9.00;;;;;;;17.27;60.61;94084.69;4991776;28;20080;-74
2023/06/20 03:47:47;;;;;;;12.10;10.23;;;;;;;17.07;61.00;94074.97;4992181;28;20408;-75
2023/06/20 03:50:13;;;;;;;14.38;9.82;;;;;;;17.20;60.64;94081.06;4990500;28;20018;-74
2023/06/20 03:52:38;;;;;;;12.95;10.40;;;;;;;17.32;60.55;94083.66;4988765;28;20077;-75
2023/06/20 03:55:04;;;;;;;13.45;10.13;;;;;;;17.27;60.46;94082.00;4989802;28;20049;-75
2023/06/20 03:57:30;;;;;;;15.25;10.98;;;;;;;17.34;60.01;94084.09;4988125;28;20508;-74
2023/06/20 03:59:55;;;;;;;17.73;10.82;;;;;;;17.51;60.09;94083.69;4991604;28;20038;-75
2023/06/20 04:02:20;;;;;;;13.88;10.57;;;;;;;17.56;60.29;94080.75;4990664;28;20134;-74
2023/06/20 04:04:49;;;;;;;14.20;9.95;;;;;;;17.79;60.12;94092.44;4989967;28;20494;-75
2023/06/20 04:07:18;;;;;;;15.93;11.18;;;;;;;17.85;59.62;94092.91;4989244;28;20357;-74
2023/06/20 04:09:50;;;;;;;21.35;11.98;;;;;;;17.69;60.07;94074.13;4988116;28;20032;-74
2023/06/20 04:12:16;;;;;;;15.18;10.80;;;;;;;17.90;59.71;94096.09;5003415;28;20045;-74
2023/06/20 04:14:42;;;;;;;14.82;10.57;;;;;;;18.06;59.13;94103.38;4988705;28;20385;-74
2023/06/20 04:17:07;;;;;;;16.20;12.35;;;;;;;18.03;58.90;94083.34;4988106;28;20069;-75
2023/06/20 04:19:33;;;;;;;20.25;11.27;;;;;;;18.18;58.96;94103.25;4988009;28;20042;-74
2023/06/20 04:21:59;;;;;;;17.17;11.38;;;;;;;17.84;59.59;94081.38;4988552;28;20039;-73
2023/06/20 04:24:24;;;;;;;14.45;12.00;;;;;;;18.08;59.33;94103.81;4988190;28;20932;-74
2023/06/20 04:26:49;;;;;;;21.42;11.07;;;;;;;18.20;59.07;94104.44;4987611;28;20046;-75
2023/06/20 04:29:15;;;;;;;19.33;11.63;;;;;;;18.22;58.56;94104.09;4990957;28;20026;-75
2023/06/20 04:31:41;;;;;;;15.80;13.02;;;;;;;18.29;58.45;94104.22;4989787;28;20157;-74
2023/06/20 04:34:06;;;;;;;20.38;11.18;;;;;;;18.14;59.46;94107.78;4988156;28;20104;-75
2023/06/20 04:36:33;;;;;;;12.35;10.93;;;;;;;18.30;59.01;94108.50;4989635;28;20034;-74
2023/06/20 04:38:59;;;;;;;14.70;12.15;;;;;;;18.16;58.48;94065.13;4988413;28;20322;-74
2023/06/20 04:41:25;;;;;;;16.42;11.38;;;;;;;18.41;57.98;94096.03;4986659;28;20450;-75
2023/06/20 04:43:50;;;;;;;19.08;11.63;;;;;;;18.35;58.17;94092.84;4988005;28;20097;-75
2023/06/20 04:46:15;;;;;;;14.75;12.27;;;;;;;18.51;58.10;94106.22;4987762;28;20120;-74
2023/06/20 04:48:41;;;;;;;15.70;11.82;;;;;;;18.70;57.54;94117.00;4987646;28;20404;-75
2023/06/20 04:51:11;;;;;;;15.55;11.85;;;;;;;18.76;56.02;94115.59;4988636;28;20041;-74
2023/06/20 04:53:37;;;;;;;14.00;11.38;;;;;;;18.68;55.97;94119.25;4989904;28;20873;-75
2023/06/20 04:56:03;;;;;;;12.02;10.73;;;;;;;18.30;57.06;94114.66;4987592;28;20064;-74
2023/06/20 04:58:29;;;;;;;38.17;13.00;;;;;;;18.70;56.40;94133.16;4989218;28;20193;-75
2023/06/20 05:00:59;;;;;;;12.65;10.57;;;;;;;18.87;56.88;94129.25;4986157;28;20046;-74
2023/06/20 05:03:25;;;;;;;13.07;11.27;;;;;;;18.96;56.27;94112.84;4989687;28;20038;-74
2023/06/20 05:05:51;;;;;;;23.25;11.77;;;;;;;19.16;56.24;94133.25;4988881;28;20034;-74
2023/06/20 05:08:17;;;;;;;15.15;10.68;;;;;;;19.29;55.17;94130.00;4986434;28;20134;-76
2023/06/20 05:10:43;;;;;;;12.93;11.27;;;;;;;19.14;55.27;94135.50;4988475;28;20038;-75
2023/06/20 05:13:08;;;;;;;12.05;10.48;;;;;;;19.11;55.75;94137.00;4988728;28;20805;-74
2023/06/20 05:15:34;;;;;;;18.83;11.73;;;;;;;19.01;57.13;94132.22;4986747;28;20093;-75
2023/06/20 05:17:59;;;;;;;15.02;10.30;;;;;;;19.17;57.04;94134.78;4989696;28;20670;-74
2023/06/20 05:20:25;;;;;;;13.55;11.13;;;;;;;19.14;56.47;94120.09;4987372;28;20022;-75
2023/06/20 05:22:50;;;;;;;23.75;12.20;;;;;;;19.35;55.72;94124.31;4985015;28;20492;-74
2023/06/20 05:25:15;;;;;;;14.57;11.40;;;;;;;19.51;54.65;94096.06;4987017;28;20045;-74
2023/06/20 05:27:42;;;;;;;14.80;10.63;;;;;;;19.67;53.41;94102.09;4989914;28;20276;-75
2023/06/20 05:30:08;;;;;;;17.00;10.70;;;;;;;19.80;54.02;94104.59;4987318;28;20092;-75
2023/06/20 05:32:34;;;;;;;12.80;10.23;;;;;;;19.79;54.61;94108.44;4992595;28;20406;-76
2023/06/20 05:34:59;;;;;;;18.02;11.38;;;;;;;19.86;54.41;94111.22;4991990;28;20045;-74
2023/06/20 05:37:25;;;;;;;18.42;11.98;;;;;;;19.86;54.98;94100.44;4989893;28;20277;-74
2023/06/20 05:39:50;;;;;;;16.25;11.07;;;;;;;19.68;55.17;94109.06;4992165;28;20108;-75
2023/06/20 05:42:17;;;;;;;16.35;11.57;;;;;;;19.94;54.89;94107.50;4992236;28;20051;-74
2023/06/20 05:44:42;;;;;;;14.07;11.25;;;;;;;20.14;54.59;94095.44;4996512;28;20112;-75
2023/06/20 05:47:08;;;;;;;14.05;11.38;;;;;;;20.28;54.11;94101.03;4994062;28;20042;-75
2023/06/20 05:49:34;;;;;;;14.63;10.98;;;;;;;20.40;52.97;94103.47;4990994;28;20034;-75
2023/06/20 05:51:59;;;;;;;17.98;10.77;;;;;;;20.40;53.06;94089.97;4991887;28;20042;-75
2023/06/20 05:54:25;;;;;;;15.00;11.60;;;;;;;20.51;52.87;94103.63;4991834;28;20034;-75
2023/06/20 05:56:50;;;;;;;16.50;11.15;;;;;;;20.48;52.99;94093.56;4991193;28;20112;-75
2023/06/20 05:59:16;;;;;;;22.77;11.35;;;;;;;20.37;52.76;94093.44;4989421;28;20036;-74
2023/06/20 06:01:42;;;;;;;14.98;10.68;;;;;;;20.24;54.11;94111.00;4993416;28;20030;-75
2023/06/20 06:04:07;;;;;;;17.48;11.98;;;;;;;20.49;55.02;94108.59;4995583;28;20042;-74
2023/06/20 06:06:32;;;;;;;19.75;12.55;;;;;;;20.46;53.06;94118.22;4989800;28;20050;-74
2023/06/20 06:08:58;;;;;;;17.02;11.02;;;;;;;20.56;53.05;94116.78;4991625;28;20164;-75
2023/06/20 06:11:25;;;;;;;17.60;10.57;;;;;;;20.79;52.25;94119.34;4991154;28;20018;-75
2023/06/20 06:13:50;;;;;;;12.88;10.45;;;;;;;20.83;52.88;94130.97;4990687;28;20078;-74
2023/06/20 06:16:17;;;;;;;11.50;10.30;;;;;;;20.86;52.34;94135.66;4989101;28;20128;-75
2023/06/20 06:18:43;;;;;;;16.00;11.38;;;;;;;20.88;52.06;94150.38;4989276;28;20049;-76
2023/06/20 06:21:10;;;;;;;16.08;11.77;;;;;;;21.01;50.57;94143.59;4989725;28;20038;-74
2023/06/20 06:23:36;;;;;;;13.88;10.85;;;;;;;20.91;50.78;94127.25;4990904;28;20452;-75
2023/06/20 06:26:02;;;;;;;14.23;11.27;;;;;;;21.05;50.79;94132.81;4991593;28;20025;-75
2023/06/20 06:28:30;;;;;;;19.50;11.63;;;;;;;21.10;50.70;94140.56;4991948;28;20436;-75
2023/06/20 06:31:05;;;;;;;13.68;10.90;;;;;;;21.34;50.35;94134.63;4989760;28;20049;-75
2023/06/20 06:33:31;;;;;;;18.60;11.20;;;;;;;21.35;50.43;94130.78;4990192;28;20420;-75
2023/06/20 06:35:59;;;;;;;14.82;11.35;;;;;;;21.42;51.68;94132.75;4990224;28;20042;-75
2023/06/20 06:38:25;;;;;;;13.93;10.50;;;;;;;21.51;51.52;94133.19;4991165;28;20051;-76
2023/06/20 06:40:54;;;;;;;20.60;12.95;;;;;;;21.66;50.84;94124.06;4991031;28;20029;-75
2023/06/20 06:43:20;;;;;;;16.85;13.32;;;;;;;21.60;51.32;94125.59;4998804;28;20034;-76
2023/06/20 06:45:46;;;;;;;13.77;10.15;;;;;;;21.56;49.28;94116.66;5004446;28;20081;-75
2023/06/20 06:48:11;;;;;;;13.00;10.13;;;;;;;21.54;49.65;94115.44;4988309;28;20034;-74
2023/06/20 06:50:36;;;;;;;14.48;10.75;;;;;;;21.65;49.17;94114.44;4992275;28;20046;-75
2023/06/20 06:53:05;;;;;;;13.98;10.07;;;;;;;21.93;48.67;94111.13;4992283;28;20026;-75
2023/06/20 06:55:30;;;;;;;19.02;11.57;;;;;;;21.72;48.06;94113.69;4990085;28;20049;-74
2023/06/20 06:57:57;;;;;;;14.77;10.50;;;;;;;21.53;50.36;94111.97;4989438;28;20037;-74
2023/06/20 07:00:23;;;;;;;19.33;11.30;;;;;;;21.56;49.89;94110.50;4986414;28;20233;-74
2023/06/20 07:02:48;;;;;;;17.63;10.98;;;;;;;21.67;49.90;94124.84;4989668;28;20034;-73
2023/06/20 07:05:14;;;;;;;16.98;10.60;;;;;;;21.75;49.74;94110.25;4991903;28;20080;-76
2023/06/20 07:07:39;;;;;;;14.05;10.52;;;;;;;21.77;48.34;94113.31;4989895;28;20091;-74
2023/06/20 07:10:05;;;;;;;12.13;10.02;;;;;;;22.06;48.67;94103.44;4995939;28;20030;-75
2023/06/20 07:12:31;;;;;;;13.93;8.57;;;;;;;22.18;46.68;94100.44;4990030;28;20594;-74
2023/06/20 07:14:56;;;;;;;9.15;7.97;;;;;;;22.36;46.58;94101.31;4988454;28;20062;-75
2023/06/20 07:17:25;;;;;;;9.93;8.13;;;;;;;21.97;45.86;94089.47;4991640;28;20841;-75
2023/06/20 07:19:51;;;;;;;11.65;7.88;;;;;;;22.19;45.96;94097.31;4989069;28;20206;-74
2023/06/20 07:22:16;;;;;;;8.85;7.35;;;;;;;22.19;43.02;94099.28;4990682;28;20120;-74
2023/06/20 07:24:42;;;;;;;7.05;5.72;;;;;;;22.05;43.14;94074.81;4990391;28;20124;-75
2023/06/20 07:27:07;;;;;;;11.02;7.35;;;;;;;22.43;43.10;94089.72;4986080;28;20101;-75
2023/06/20 07:29:32;;;;;;;7.53;6.03;;;;;;;22.49;41.77;94104.44;5006702;28;20053;-74
2023/06/20 07:31:58;;;;;;;9.23;6.47;;;;;;;22.50;41.27;94100.59;4990032;28;20034;-74
2023/06/20 07:34:23;;;;;;;11.65;6.40;;;;;;;22.50;43.25;94106.00;4992270;28;20080;-75
2023/06/20 07:36:48;;;;;;;8.38;6.60;;;;;;;22.55;41.56;94092.88;4987598;28;20038;-74
2023/06/20 07:39:14;;;;;;;8.80;5.57;;;;;;;22.86;40.91;94110.44;4990269;28;20038;-75
2023/06/20 07:41:39;;;;;;;10.27;5.78;;;;;;;22.98;40.03;94109.28;4987799;28;20042;-75
2023/06/20 07:44:06;;;;;;;7.88;6.00;;;;;;;22.40;39.87;94106.75;4995652;28;20121;-74
2023/06/20 07:46:31;;;;;;;8.38;5.57;;;;;;;22.55;38.41;94098.28;4986348;28;20034;-74
2023/06/20 07:48:56;;;;;;;12.30;6.28;;;;;;;22.73;38.99;94104.53;4985375;28;20049;-74
2023/06/20 07:51:22;;;;;;;10.30;6.32;;;;;;;22.69;41.06;94102.97;4987068;28;20073;-75
2023/06/20 07:53:47;;;;;;;6.65;5.82;;;;;;;22.88;40.55;94099.97;4991303;28;20651;-75
2023/06/20 07:56:13;;;;;;;8.38;6.60;;;;;;;22.80;40.27;94109.22;4986003;28;22439;-76
2023/06/20 07:58:41;;;;;;;10.00;7.15;;;;;;;22.82;41.26;94112.31;4991011;28;20070;-74
2023/06/20 08:01:06;;;;;;;13.23;6.00;;;;;;;23.01;41.31;94109.31;4989427;28;20049;-75
2023/06/20 08:03:32;;;;;;;9.52;6.82;;;;;;;23.02;39.52;94099.22;4990111;28;20038;-75
2023/06/20 08:05:57;;;;;;;7.90;6.88;;;;;;;23.00;40.59;94102.31;4989738;28;20040;-75
2023/06/20 08:08:23;;;;;;;8.80;6.20;;;;;;;22.99;38.75;94108.13;4988084;28;20034;-74
2023/06/20 08:10:48;;;;;;;7.60;5.97;;;;;;;23.01;39.31;94122.88;4988371;28;20060;-74
2023/06/20 08:13:14;;;;;;;8.88;5.60;;;;;;;23.02;39.93;94113.56;4988607;28;20058;-74
2023/06/20 08:15:39;;;;;;;6.32;5.72;;;;;;;22.94;39.08;94111.97;4987612;28;20368;-75
2023/06/20 08:18:04;;;;;;;8.65;5.53;;;;;;;23.12;39.92;94110.06;4986726;28;20040;-75
2023/06/20 08:20:30;;;;;;;12.43;5.88;;;;;;;22.92;39.11;94114.31;4985917;28;20546;-75
2023/06/20 08:22:56;;;;;;;6.43;5.75;;;;;;;22.91;38.20;94107.34;4988102;28;20041;-74
2023/06/20 08:25:21;;;;;;;7.80;5.30;;;;;;;22.95;39.91;94085.66;4989871;28;20086;-75
2023/06/20 08:27:46;;;;;;;7.95;6.28;;;;;;;23.21;38.73;94111.66;4988977;28;20042;-77
2023/06/20 08:30:12;;;;;;;9.75;6.55;;;;;;;23.21;38.57;94120.56;4984977;28;20069;-75
2023/06/20 08:32:39;;;;;;;6.57;5.72;;;;;;;23.31;40.04;94113.59;4988621;28;20424;-74
2023/06/20 08:35:08;;;;;;;5.82;5.22;;;;;;;23.48;38.26;94110.13;4990484;28;20575;-74
2023/06/20 08:37:33;;;;;;;10.73;5.70;;;;;;;23.42;38.66;94115.16;4991100;28;20038;-75
2023/06/20 08:39:58;;;;;;;8.27;5.80;;;;;;;23.40;38.18;94124.84;4994659;28;20040;-75
2023/06/20 08:42:24;;;;;;;8.32;5.97;;;;;;;23.13;39.15;94117.06;4990262;28;20048;-75
2023/06/20 08:44:50;;;;;;;7.82;6.68;;;;;;;23.13;39.74;94117.06;4990788;28;20100;-76
2023/06/20 08:47:15;;;;;;;8.73;6.55;;;;;;;23.10;39.87;94112.41;4990534;28;20030;-74
2023/06/20 08:49:41;;;;;;;8.18;6.00;;;;;;;23.35;39.93;94127.94;4988847;28;20408;-75
2023/06/20 08:52:11;;;;;;;9.00;6.38;;;;;;;23.29;39.77;94113.22;4989135;28;20507;-75
2023/06/20 08:54:40;;;;;;;7.15;5.35;;;;;;;23.46;39.73;94134.16;4990019;28;20057;-75
2023/06/20 08:57:06;;;;;;;7.20;5.32;;;;;;;23.43;38.57;94134.94;4987853;28;20041;-75
2023/06/20 08:59:34;;;;;;;7.13;6.20;;;;;;;23.36;38.24;94134.94;4995932;28;20030;-74
2023/06/20 09:01:59;;;;;;;8.45;6.30;;;;;;;23.39;38.69;94121.38;4988361;28;20357;-74
2023/06/20 09:04:27;;;;;;;9.05;6.15;;;;;;;23.52;39.45;94119.84;4988307;28;20041;-74
2023/06/20 09:06:53;;;;;;;7.32;5.03;;;;;;;23.68;38.47;94127.59;4989667;28;20425;-75
2023/06/20 09:09:18;;;;;;;7.05;5.45;;;;;;;23.51;39.64;94114.81;4987068;28;20041;-74
2023/06/20 09:11:58;;;;;;;10.18;5.97;;;;;;;23.44;39.71;94122.91;4988445;28;20037;-75
2023/06/20 09:14:28;;;;;;;8.52;6.18;;;;;;;23.51;39.35;94125.66;4990868;28;20073;-75
2023/06/20 09:16:54;;;;;;;7.78;7.00;;;;;;;23.54;39.67;94116.75;4988836;28;20026;-72
2023/06/20 09:19:20;;;;;;;7.25;6.32;;;;;;;23.63;38.61;94121.78;4988963;28;20052;-74
2023/06/20 09:21:46;;;;;;;8.48;6.60;;;;;;;23.53;40.04;94123.34;4988972;28;20038;-75
2023/06/20 09:24:16;;;;;;;8.10;6.68;;;;;;;23.45;41.16;94110.91;4988064;28;20034;-75
2023/06/20 09:26:41;;;;;;;9.88;5.97;;;;;;;23.51;40.87;94115.56;4987090;28;21726;-76
2023/06/20 09:29:12;;;;;;;7.57;6.70;;;;;;;23.55;41.84;94116.38;4989438;28;20040;-75
2023/06/20 09:31:45;;;;;;;9.10;6.38;;;;;;;23.61;39.48;94114.03;4987953;28;20692;-75
2023/06/20 09:34:16;;;;;;;6.57;5.85;;;;;;;23.62;39.75;94118.28;4989066;28;20074;-77
2023/06/20 09:36:42;;;;;;;7.07;6.32;;;;;;;23.75;40.13;94114.03;4988055;28;20034;-75
2023/06/20 09:39:11;;;;;;;10.15;7.57;;;;;;;23.68;40.35;94115.97;4989100;28;20595;-75
2023/06/20 09:41:42;;;;;;;6.57;5.97;;;;;;;23.66;40.99;94113.63;4989006;28;20049;-76
2023/06/20 09:44:07;;;;;;;7.45;6.65;;;;;;;23.49;39.33;94103.56;4989894;28;20030;-75
2023/06/20 09:46:33;;;;;;;8.68;6.22;;;;;;;23.62;40.21;94099.28;4986707;28;20080;-75
2023/06/20 09:48:59;;;;;;;7.32;6.45;;;;;;;23.85;39.34;94096.94;4994706;28;20526;-74
2023/06/20 09:51:28;;;;;;;6.70;6.10;;;;;;;23.72;40.18;94093.06;4988103;28;20065;-77
2023/06/20 09:54:04;;;;;;;9.07;6.95;;;;;;;23.67;40.42;94095.41;4988340;28;20157;-74
2023/06/20 09:56:33;;;;;;;7.55;6.22;;;;;;;23.82;41.10;94092.28;4990863;28;20164;-75
2023/06/20 09:59:00;;;;;;;10.80;5.97;;;;;;;23.66;39.09;94108.19;4987992;28;20033;-75
2023/06/20 10:01:28;;;;;;;13.60;6.40;;;;;;;23.63;39.34;94106.25;4990247;28;20038;-75
2023/06/20 10:03:55;;;;;;;6.93;6.25;;;;;;;23.86;39.77;94105.84;4989519;28;20034;-76
2023/06/20 10:06:21;;;;;;;9.38;6.32;;;;;;;24.03;39.84;94102.34;4988226;28;20034;-75
2023/06/20 10:08:48;;;;;;;7.68;6.40;;;;;;;24.19;38.56;94107.38;4987531;28;20034;-76
2023/06/20 10:11:13;;;;;;;7.55;6.80;;;;;;;24.20;39.52;94100.78;4985042;28;20035;-75
2023/06/20 10:13:40;;;;;;;11.20;7.47;;;;;;;23.98;40.06;94091.88;4991288;28;20046;-75
2023/06/20 10:16:05;;;;;;;9.63;6.75;;;;;;;24.10;39.16;94090.69;4988764;28;20484;-77
2023/06/20 10:18:31;;;;;;;9.20;6.68;;;;;;;24.13;39.75;94095.34;5003753;28;20046;-74
2023/06/20 10:20:56;;;;;;;7.65;6.22;;;;;;;24.22;39.50;94093.00;4990385;28;20050;-74
2023/06/20 10:23:30;;;;;;;9.90;6.20;;;;;;;24.01;39.86;94100.00;4991866;28;20497;-74
2023/06/20 10:26:00;;;;;;;9.70;6.38;;;;;;;23.90;39.19;94088.41;4992277;28;20033;-75
2023/06/20 10:28:26;;;;;;;9.15;6.65;;;;;;;23.75;38.91;94081.44;4991956;28;20038;-75
2023/06/20 10:30:57;;;;;;;9.27;7.53;;;;;;;24.12;40.32;94101.97;4990963;28;20042;-74
2023/06/20 10:33:36;;;;;;;8.57;7.07;;;;;;;24.27;39.66;94096.09;4991031;28;20066;-76
2023/06/20 10:36:04;;;;;;;9.93;6.18;;;;;;;24.32;39.07;94103.06;4989405;28;20042;-75
2023/06/20 10:38:37;;;;;;;7.75;7.00;;;;;;;24.43;38.94;94103.81;4990935;28;20122;-76
2023/06/20 10:41:21;;;;;;;8.43;6.72;;;;;;;24.45;39.59;94090.59;5005691;28;20121;-74
2023/06/20 10:43:50;;;;;;;8.23;5.68;;;;;;;24.05;39.33;94089.16;4993925;28;20488;-75
2023/06/20 10:46:16;;;;;;;6.88;5.93;;;;;;;23.93;39.27;94098.47;4987256;28;20045;-73
2023/06/20 10:48:41;;;;;;;9.63;6.50;;;;;;;23.79;40.22;94076.00;4992855;28;20111;-75
2023/06/20 10:51:09;;;;;;;6.97;6.38;;;;;;;24.26;41.42;94091.03;4992812;28;20420;-75
2023/06/20 10:53:35;;;;;;;6.50;5.90;;;;;;;24.39;38.72;94081.31;4992019;28;20034;-76
2023/06/20 10:56:00;;;;;;;10.20;6.13;;;;;;;24.55;38.36;94078.91;4989225;28;20022;-76
2023/06/20 10:58:26;;;;;;;8.65;5.40;;;;;;;24.55;38.41;94064.53;4990373;28;20138;-74
2023/06/20 11:00:54;;;;;;;8.93;6.03;;;;;;;24.42;38.34;94064.19;4987887;28;20633;-75
2023/06/20 11:03:21;;;;;;;8.02;6.97;;;;;;;24.13;37.71;94068.19;4989500;28;20132;-74
2023/06/20 11:05:51;;;;;;;7.47;6.65;;;;;;;24.13;39.16;94076.34;4988583;28;20040;-75
2023/06/20 11:08:26;;;;;;;7.55;6.85;;;;;;;24.30;40.27;94076.28;4993745;28;20030;-74
2023/06/20 11:10:52;;;;;;;7.05;6.13;;;;;;;24.43;39.71;94068.47;4991947;28;20046;-76
2023/06/20 11:13:17;;;;;;;8.45;6.97;;;;;;;24.44;39.78;94067.31;4990267;28;20037;-76
2023/06/20 11:15:43;;;;;;;9.10;6.38;;;;;;;24.42;40.20;94064.97;4995912;28;20610;-75
2023/06/20 11:18:09;;;;;;;7.88;6.55;;;;;;;24.55;40.22;94073.47;4989767;28;20038;-76
2023/06/20 11:20:41;;;;;;;9.43;6.13;;;;;;;24.63;40.71;94064.13;4990380;28;20052;-74
2023/06/20 11:23:12;;;;;;;8.95;6.20;;;;;;;24.71;38.98;94065.66;4989367;28;20030;-74
2023/06/20 11:25:39;;;;;;;13.57;6.60;;;;;;;24.68;39.47;94071.84;4991032;28;20140;-75
2023/06/20 11:28:09;;;;;;;6.80;6.10;;;;;;;24.60;39.50;94062.16;4991663;28;20791;-75